createdAt,value
2023-04-21T00:02:39.607Z,11.81
2023-04-21T00:05:27.293Z,11.80
2023-04-21T00:08:14.966Z,11.79
2023-04-21T00:11:01.849Z,11.77
2023-04-21T00:13:48.697Z,11.76
2023-04-21T00:16:35.701Z,11.75
2023-04-21T00:19:23.880Z,11.73
2023-04-21T00:22:14.904Z,11.72
2023-04-21T00:25:04.425Z,11.71
2023-04-21T00:27:51.707Z,11.69
2023-04-21T00:30:38.592Z,11.67
2023-04-21T00:33:25.658Z,11.66
2023-04-21T00:36:12.583Z,11.64
2023-04-21T00:38:59.462Z,11.63
2023-04-21T00:41:46.355Z,11.62
2023-04-21T00:44:33.277Z,11.60
2023-04-21T00:47:20.160Z,11.60
2023-04-21T00:50:07.352Z,11.57
2023-04-21T00:52:54.603Z,11.56
2023-04-21T00:55:41.545Z,11.55
2023-04-21T00:58:28.482Z,11.55
2023-04-21T01:01:15.419Z,11.55
2023-04-21T01:04:04.229Z,11.54
2023-04-21T01:06:51.771Z,11.53
2023-04-21T01:09:38.711Z,11.53
2023-04-21T01:12:25.550Z,11.52
2023-04-21T01:15:13.822Z,11.49
2023-04-21T01:18:03.592Z,11.48
2023-04-21T01:20:51.015Z,11.46
2023-04-21T01:23:37.885Z,11.45
2023-04-21T01:26:24.835Z,11.43
2023-04-21T01:29:11.654Z,11.43
2023-04-21T01:31:58.674Z,11.41
2023-04-21T01:34:45.685Z,11.40
2023-04-21T01:37:33.941Z,11.37
2023-04-21T01:40:20.881Z,11.36
2023-04-21T01:43:08.036Z,11.36
2023-04-21T01:45:54.923Z,11.36
2023-04-21T01:48:41.778Z,11.34
2023-04-21T01:51:28.672Z,11.32
2023-04-21T01:54:15.652Z,11.29
2023-04-21T01:57:03.203Z,11.28
2023-04-21T01:59:50.129Z,11.27
2023-04-21T02:02:37.061Z,11.25
2023-04-21T02:05:24.045Z,11.25
2023-04-21T02:08:11.033Z,11.22
2023-04-21T02:10:57.851Z,11.20
2023-04-21T02:13:44.803Z,11.19
2023-04-21T02:16:32.719Z,11.16
2023-04-21T02:19:19.829Z,11.16
2023-04-21T02:22:08.361Z,11.14
2023-04-21T02:24:55.236Z,11.13
2023-04-21T02:27:42.062Z,11.12
2023-04-21T02:30:28.919Z,11.12
2023-04-21T02:33:15.770Z,11.10
2023-04-21T02:36:03.312Z,11.09
2023-04-21T02:38:51.331Z,11.06
2023-04-21T02:41:38.411Z,11.07
2023-04-21T02:44:25.452Z,11.03
2023-04-21T02:47:12.385Z,11.01
2023-04-21T02:49:59.174Z,11.00
2023-04-21T02:52:46.045Z,10.99
2023-04-21T02:55:33.102Z,10.98
2023-04-21T02:58:19.982Z,10.97
2023-04-21T03:01:07.084Z,10.95
2023-04-21T03:03:54.035Z,10.93
2023-04-21T03:06:41.124Z,10.93
2023-04-21T03:09:28.004Z,10.91
2023-04-21T03:12:14.871Z,10.88
2023-04-21T03:15:01.696Z,10.87
2023-04-21T03:17:48.637Z,10.86
2023-04-21T03:20:35.525Z,10.85
2023-04-21T03:23:22.349Z,10.85
2023-04-21T03:26:09.341Z,10.82
2023-04-21T03:28:56.205Z,10.81
2023-04-21T03:31:43.050Z,10.81
2023-04-21T03:34:29.991Z,10.79
2023-04-21T03:37:16.869Z,10.78
2023-04-21T03:40:06.126Z,10.77
2023-04-21T03:42:53.332Z,10.74
2023-04-21T03:45:40.323Z,10.74
2023-04-21T03:48:28.412Z,10.73
2023-04-21T03:51:15.440Z,10.72
2023-04-21T03:54:02.310Z,10.69
2023-04-21T03:56:49.142Z,10.70
2023-04-21T03:59:35.929Z,10.69
2023-04-21T04:02:23.113Z,10.67
2023-04-21T04:05:10.256Z,10.66
2023-04-21T04:07:57.114Z,10.64
2023-04-21T04:10:43.975Z,10.62
2023-04-21T04:13:30.833Z,10.63
2023-04-21T04:16:18.272Z,10.60
2023-04-21T04:19:05.273Z,10.59
2023-04-21T04:21:52.079Z,10.57
2023-04-21T04:24:38.960Z,10.57
2023-04-21T04:27:26.780Z,10.57
2023-04-21T04:30:13.979Z,10.52
2023-04-21T04:33:01.522Z,10.51
2023-04-21T04:35:48.521Z,10.52
2023-04-21T04:38:37.510Z,10.52
2023-04-21T04:41:25.349Z,10.50
2023-04-21T04:44:12.245Z,10.49
2023-04-21T04:46:59.212Z,10.49
2023-04-21T04:49:46.964Z,10.49
2023-04-21T04:52:33.797Z,10.47
2023-04-21T04:55:20.637Z,10.47
2023-04-21T04:58:07.567Z,10.47
2023-04-21T05:00:54.488Z,10.47
2023-04-21T05:03:41.866Z,10.45
2023-04-21T05:06:29.109Z,10.44
2023-04-21T05:09:16.510Z,10.43
2023-04-21T05:12:03.569Z,10.43
2023-04-21T05:14:50.597Z,10.41
2023-04-21T05:17:37.753Z,10.40
2023-04-21T05:20:24.645Z,10.40
2023-04-21T05:23:11.502Z,10.43
2023-04-21T05:25:58.449Z,10.34
2023-04-21T05:28:45.381Z,10.29
2023-04-21T05:31:33.054Z,10.30
2023-04-21T05:34:20.171Z,10.30
2023-04-21T05:37:07.333Z,10.30
2023-04-21T05:39:54.186Z,10.29
2023-04-21T05:42:41.326Z,10.27
2023-04-21T05:45:28.144Z,10.25
2023-04-21T05:48:15.281Z,10.22
2023-04-21T05:51:10.503Z,10.20
2023-04-21T05:53:57.325Z,10.17
2023-04-21T05:56:44.143Z,10.16
2023-04-21T05:59:30.995Z,10.17
2023-04-21T06:02:17.971Z,10.18
2023-04-21T06:05:05.258Z,10.18
2023-04-21T06:07:52.521Z,10.20
2023-04-21T06:10:39.321Z,10.21
2023-04-21T06:13:27.792Z,10.26
2023-04-21T06:16:14.765Z,10.28
2023-04-21T06:19:01.642Z,10.29
2023-04-21T06:21:48.503Z,10.34
2023-04-21T06:24:35.327Z,10.38
2023-04-21T06:27:22.174Z,10.41
2023-04-21T06:30:09.275Z,10.45
2023-04-21T06:32:56.165Z,10.48
2023-04-21T06:35:43.252Z,10.50
2023-04-21T06:38:30.126Z,10.50
2023-04-21T06:41:17.954Z,10.53
2023-04-21T06:44:04.791Z,10.52
2023-04-21T06:46:51.756Z,10.52
2023-04-21T06:49:38.669Z,10.52
2023-04-21T06:52:26.179Z,10.53
2023-04-21T06:55:13.080Z,10.54
2023-04-21T06:58:00.021Z,10.56
2023-04-21T07:00:47.014Z,10.58
2023-04-21T07:03:33.966Z,10.62
2023-04-21T07:06:20.850Z,10.65
2023-04-21T07:09:07.679Z,10.69
2023-04-21T07:11:57.491Z,10.73
2023-04-21T07:14:44.333Z,10.78
2023-04-21T07:17:31.247Z,10.83
2023-04-21T07:20:18.830Z,10.90
2023-04-21T07:23:05.859Z,10.96
2023-04-21T07:25:52.822Z,11.02
2023-04-21T07:28:42.564Z,11.09
2023-04-21T07:31:29.431Z,11.20
2023-04-21T07:34:16.315Z,11.27
2023-04-21T07:37:03.134Z,11.36
2023-04-21T07:39:50.291Z,11.43
2023-04-21T07:42:37.140Z,11.47
2023-04-21T07:45:24.800Z,11.51
2023-04-21T07:48:11.701Z,11.55
2023-04-21T07:51:00.405Z,11.60
2023-04-21T07:53:47.242Z,11.64
2023-04-21T07:56:34.141Z,11.68
2023-04-21T07:59:21.203Z,11.72
2023-04-21T08:02:08.375Z,11.76
2023-04-21T08:04:55.667Z,11.81
2023-04-21T08:07:42.627Z,11.89
2023-04-21T08:10:29.642Z,11.96
2023-04-21T08:13:16.605Z,11.99
2023-04-21T08:16:03.527Z,12.06
2023-04-21T08:18:50.434Z,12.10
2023-04-21T08:21:37.522Z,12.13
2023-04-21T08:24:25.954Z,12.18
2023-04-21T08:27:12.796Z,12.21
2023-04-21T08:30:00.506Z,12.26
2023-04-21T08:32:47.409Z,12.32
2023-04-21T08:35:36.042Z,12.40
2023-04-21T08:38:22.904Z,12.45
2023-04-21T08:41:10.106Z,12.53
2023-04-21T08:43:56.946Z,12.60
2023-04-21T08:46:45.449Z,12.66
2023-04-21T08:49:33.470Z,12.73
2023-04-21T08:52:20.278Z,12.80
2023-04-21T08:55:07.609Z,12.85
2023-04-21T08:57:54.591Z,12.89
2023-04-21T09:00:42.051Z,12.93
2023-04-21T09:03:31.124Z,12.97
2023-04-21T09:06:18.291Z,13.00
2023-04-21T09:09:05.657Z,13.03
2023-04-21T09:11:59.866Z,13.10
2023-04-21T09:14:46.842Z,13.17
2023-04-21T09:17:34.036Z,13.25
2023-04-21T09:20:22.284Z,13.32
2023-04-21T09:23:09.656Z,13.37
2023-04-21T09:25:56.485Z,13.44
2023-04-21T09:28:44.505Z,13.49
2023-04-21T09:31:35.676Z,13.54
2023-04-21T09:34:26.287Z,13.61
2023-04-21T09:37:16.621Z,13.66
2023-04-21T09:40:06.291Z,13.73
2023-04-21T09:42:53.439Z,13.80
2023-04-21T09:45:41.022Z,13.85
2023-04-21T09:48:29.505Z,13.90
2023-04-21T09:54:28.528Z,14.03
2023-04-21T09:57:22.394Z,14.12
2023-04-21T10:00:12.119Z,14.18
2023-04-21T10:03:01.083Z,14.24
2023-04-21T10:05:48.069Z,14.29
2023-04-21T10:08:36.096Z,14.36
2023-04-21T10:11:24.117Z,14.44
2023-04-21T10:14:11.024Z,14.50
2023-04-21T10:17:04.875Z,14.59
2023-04-21T10:19:53.554Z,14.67
2023-04-21T10:22:42.690Z,14.73
2023-04-21T10:25:29.671Z,14.80
2023-04-21T10:28:18.553Z,14.90
2023-04-21T10:31:24.136Z,14.99
2023-04-21T10:34:13.660Z,15.04
2023-04-21T10:37:00.530Z,15.12
2023-04-21T10:39:54.981Z,15.20
2023-04-21T10:42:41.882Z,15.27
2023-04-21T10:45:28.715Z,15.32
2023-04-21T10:48:15.650Z,15.39
2023-04-21T10:51:04.242Z,15.48
2023-04-21T10:53:51.060Z,15.55
2023-04-21T10:56:38.886Z,15.61
2023-04-21T10:59:27.286Z,15.66
2023-04-21T11:02:16.536Z,15.72
2023-04-21T11:05:03.709Z,15.78
2023-04-21T11:07:50.542Z,15.83
2023-04-21T11:10:50.101Z,15.89
2023-04-21T11:13:36.987Z,15.95
2023-04-21T11:16:23.893Z,16.01
2023-04-21T11:19:11.087Z,16.06
2023-04-21T11:21:58.432Z,16.14
2023-04-21T11:24:46.441Z,16.21
2023-04-21T11:27:33.298Z,16.26
2023-04-21T11:30:20.594Z,16.32
2023-04-21T11:33:07.448Z,16.37
2023-04-21T11:35:58.956Z,16.44
2023-04-21T11:38:45.846Z,16.51
2023-04-21T11:41:32.688Z,16.57
2023-04-21T11:44:39.684Z,16.63
2023-04-21T11:47:27.543Z,16.69
2023-04-21T11:50:30.607Z,16.74
2023-04-21T11:53:17.845Z,16.78
2023-04-21T11:56:05.270Z,16.82
2023-04-21T11:58:52.824Z,16.88
2023-04-21T12:01:46.658Z,16.93
2023-04-21T12:04:34.655Z,17.00
2023-04-21T12:07:23.127Z,17.06
2023-04-21T12:10:17.972Z,17.13
2023-04-21T12:13:04.843Z,17.19
2023-04-21T12:15:51.743Z,17.25
2023-04-21T12:18:38.542Z,17.30
2023-04-21T12:21:28.347Z,17.36
2023-04-21T12:24:15.159Z,17.44
2023-04-21T12:27:02.604Z,17.47
2023-04-21T12:29:49.397Z,17.54
2023-04-21T12:32:36.241Z,17.60
2023-04-21T12:35:23.290Z,17.67
2023-04-21T12:38:10.206Z,17.72
2023-04-21T12:40:57.039Z,17.76
2023-04-21T12:43:43.993Z,17.82
2023-04-21T12:46:30.933Z,17.87
2023-04-21T12:49:18.522Z,17.92
2023-04-21T12:52:08.373Z,17.95
2023-04-21T12:54:55.277Z,18.01
2023-04-21T12:57:42.142Z,18.07
2023-04-21T13:00:28.972Z,18.11
2023-04-21T13:03:16.096Z,18.14
2023-04-21T13:06:04.264Z,18.18
2023-04-21T13:08:51.082Z,18.21
2023-04-21T13:11:38.076Z,18.27
2023-04-21T13:14:24.945Z,18.32
2023-04-21T13:17:11.817Z,18.37
2023-04-21T13:19:58.714Z,18.40
2023-04-21T13:22:46.114Z,18.42
2023-04-21T13:25:32.956Z,18.47
2023-04-21T13:28:19.993Z,18.49
2023-04-21T13:31:07.222Z,18.52
2023-04-21T13:33:54.413Z,18.58
2023-04-21T13:36:41.780Z,18.63
2023-04-21T13:39:28.720Z,18.68
2023-04-21T13:42:15.691Z,18.73
2023-04-21T13:45:03.254Z,18.76
2023-04-21T13:47:51.755Z,18.80
2023-04-21T13:50:38.695Z,18.84
2023-04-21T13:53:25.526Z,18.89
2023-04-21T13:56:13.889Z,18.93
2023-04-21T13:59:00.863Z,18.95
2023-04-21T14:01:47.825Z,18.99
2023-04-21T14:04:34.971Z,19.05
2023-04-21T14:07:23.485Z,19.08
2023-04-21T14:10:14.606Z,19.13
2023-04-21T14:13:01.778Z,19.17
2023-04-21T14:15:48.682Z,19.20
2023-04-21T14:18:36.442Z,19.22
2023-04-21T14:21:23.567Z,19.25
2023-04-21T14:24:10.488Z,19.28
2023-04-21T14:26:57.563Z,19.29
2023-04-21T14:29:44.453Z,19.32
2023-04-21T14:32:31.537Z,19.35
2023-04-21T14:35:18.384Z,19.37
2023-04-21T14:38:05.572Z,19.38
2023-04-21T14:40:55.339Z,19.40
2023-04-21T14:43:42.176Z,19.41
2023-04-21T14:46:29.167Z,19.41
2023-04-21T14:49:16.280Z,19.43
2023-04-21T14:52:03.745Z,19.43
2023-04-21T14:54:50.902Z,19.44
2023-04-21T14:57:37.850Z,19.47
2023-04-21T15:00:25.805Z,19.47
2023-04-21T15:03:12.825Z,19.49
2023-04-21T15:05:59.795Z,19.49
2023-04-21T15:08:46.645Z,19.52
2023-04-21T15:11:33.559Z,19.53
2023-04-21T15:14:20.933Z,19.54
2023-04-21T15:17:07.976Z,19.55
2023-04-21T15:19:54.836Z,19.55
2023-04-21T15:22:42.020Z,19.56
2023-04-21T15:25:28.851Z,19.55
2023-04-21T15:28:15.946Z,19.50
2023-04-21T15:31:02.996Z,19.46
2023-04-21T15:33:49.924Z,19.47
2023-04-21T15:36:36.831Z,19.41
2023-04-21T15:39:23.764Z,19.39
2023-04-21T15:42:10.674Z,19.41
2023-04-21T15:44:57.568Z,19.46
2023-04-21T15:47:47.095Z,19.51
2023-04-21T15:50:35.484Z,19.57
2023-04-21T15:53:22.416Z,19.61
2023-04-21T15:56:11.482Z,19.70
2023-04-21T15:58:58.362Z,19.79
2023-04-21T16:01:45.304Z,19.81
2023-04-21T16:04:32.470Z,19.91
2023-04-21T16:07:19.453Z,20.02
2023-04-21T16:10:07.098Z,20.12
2023-04-21T16:12:54.063Z,20.20
2023-04-21T16:15:41.080Z,20.28
2023-04-21T16:18:28.067Z,20.32
2023-04-21T16:21:15.029Z,20.32
2023-04-21T16:24:02.955Z,20.37
2023-04-21T16:26:51.026Z,20.27
2023-04-21T16:29:37.912Z,20.19
2023-04-21T16:32:25.121Z,20.13
2023-04-21T16:35:12.018Z,20.17
2023-04-21T16:37:58.931Z,20.09
2023-04-21T16:40:45.824Z,20.01
2023-04-21T16:43:32.740Z,19.98
2023-04-21T16:46:19.804Z,20.01
2023-04-21T16:49:06.831Z,20.07
2023-04-21T16:51:53.666Z,20.14
2023-04-21T16:54:40.862Z,20.19
2023-04-21T16:57:29.260Z,20.23
2023-04-21T17:00:16.651Z,20.27
2023-04-21T17:03:03.724Z,20.29
2023-04-21T17:05:50.764Z,20.33
2023-04-21T17:08:37.843Z,20.35
2023-04-21T17:11:24.881Z,20.38
2023-04-21T17:14:12.859Z,20.19
2023-04-21T17:16:59.825Z,19.98
2023-04-21T17:19:46.809Z,19.84
2023-04-21T17:22:33.781Z,19.68
2023-04-21T17:25:20.822Z,19.61
2023-04-21T17:28:07.690Z,19.68
2023-04-21T17:31:03.578Z,19.78
2023-04-21T17:34:01.071Z,19.89
2023-04-21T17:36:47.887Z,19.98
2023-04-21T17:39:34.753Z,20.05
2023-04-21T17:42:21.777Z,20.13
2023-04-21T17:45:08.926Z,20.18
2023-04-21T17:47:55.796Z,20.21
2023-04-21T17:50:44.565Z,20.08
2023-04-21T17:53:40.642Z,19.86
2023-04-21T17:56:27.503Z,19.85
2023-04-21T17:59:14.356Z,19.88
2023-04-21T18:02:01.452Z,19.91
2023-04-21T18:04:48.448Z,19.96
2023-04-21T18:07:35.305Z,20.00
2023-04-21T18:10:23.058Z,20.04
2023-04-21T18:13:10.466Z,20.06
2023-04-21T18:15:57.947Z,20.10
2023-04-21T18:18:46.695Z,20.11
2023-04-21T18:21:33.518Z,20.12
2023-04-21T18:24:20.446Z,20.10
2023-04-21T18:27:07.332Z,20.11
2023-04-21T18:29:54.575Z,20.11
2023-04-21T18:32:41.583Z,20.10
2023-04-21T18:35:28.675Z,20.11
2023-04-21T18:38:15.473Z,20.13
2023-04-21T18:41:02.406Z,20.13
2023-04-21T18:43:49.674Z,20.12
2023-04-21T18:46:36.589Z,20.13
2023-04-21T18:49:23.535Z,20.13
2023-04-21T18:52:10.397Z,20.14
2023-04-21T18:54:57.245Z,20.12
2023-04-21T18:57:44.143Z,20.12
2023-04-21T19:00:32.067Z,20.10
2023-04-21T19:03:19.410Z,20.09
2023-04-21T19:06:06.378Z,20.10
2023-04-21T19:08:53.430Z,20.09
2023-04-21T19:11:40.584Z,20.08
2023-04-21T19:14:29.027Z,20.07
2023-04-21T19:17:19.727Z,20.04
2023-04-21T19:20:07.433Z,20.04
2023-04-21T19:22:54.260Z,20.00
2023-04-21T19:25:41.325Z,20.00
2023-04-21T19:28:28.173Z,19.99
2023-04-21T19:31:19.129Z,19.96
2023-04-21T19:34:06.775Z,19.95
2023-04-21T19:36:53.749Z,19.93
2023-04-21T19:39:40.727Z,19.91
2023-04-21T19:42:27.638Z,19.88
2023-04-21T19:45:14.461Z,19.88
2023-04-21T19:48:01.560Z,19.85
2023-04-21T19:50:48.477Z,19.81
2023-04-21T19:53:35.834Z,19.79
2023-04-21T19:56:23.179Z,19.78
2023-04-21T19:59:10.377Z,19.77
2023-04-21T20:01:57.383Z,19.73
2023-04-21T20:04:44.416Z,19.70
2023-04-21T20:07:31.324Z,19.70
2023-04-21T20:10:19.346Z,19.67
2023-04-21T20:13:06.201Z,19.66
2023-04-21T20:15:53.202Z,19.65
2023-04-21T20:18:40.215Z,19.63
2023-04-21T20:21:27.420Z,19.64
2023-04-21T20:24:14.360Z,19.62
2023-04-21T20:27:01.982Z,19.61
2023-04-21T20:29:48.827Z,19.58
2023-04-21T20:32:36.624Z,19.56
2023-04-21T20:35:23.497Z,19.55
2023-04-21T20:38:11.013Z,19.52
2023-04-21T20:40:58.675Z,19.51
2023-04-21T20:43:45.520Z,19.49
2023-04-21T20:46:32.512Z,19.46
2023-04-21T20:49:19.384Z,19.43
2023-04-21T20:52:06.326Z,19.42
2023-04-21T20:54:53.205Z,19.40
2023-04-21T20:57:40.067Z,19.37
2023-04-21T21:00:27.522Z,19.35
2023-04-21T21:03:14.637Z,19.33
2023-04-21T21:06:01.785Z,19.30
2023-04-21T21:08:48.625Z,19.28
2023-04-21T21:11:35.934Z,19.24
2023-04-21T21:14:22.887Z,19.21
2023-04-21T21:17:10.711Z,19.20
2023-04-21T21:19:57.950Z,19.17
2023-04-21T21:22:44.782Z,19.14
2023-04-21T21:25:31.661Z,19.12
2023-04-21T21:28:19.087Z,19.09
2023-04-21T21:31:06.275Z,19.08
2023-04-21T21:33:53.206Z,19.05
2023-04-21T21:36:40.249Z,19.02
2023-04-21T21:39:27.148Z,18.99
2023-04-21T21:42:14.156Z,18.96
2023-04-21T21:45:01.235Z,18.93
2023-04-21T21:47:49.813Z,18.90
2023-04-21T21:50:36.828Z,18.88
2023-04-21T21:53:23.648Z,18.85
2023-04-21T21:56:10.562Z,18.82
2023-04-21T21:58:57.767Z,18.80
2023-04-21T22:01:44.714Z,18.76
2023-04-21T22:04:32.129Z,18.73
2023-04-21T22:07:19.458Z,18.69
2023-04-21T22:10:07.411Z,18.66
2023-04-21T22:12:54.313Z,18.62
2023-04-21T22:15:41.331Z,18.59
2023-04-21T22:18:29.964Z,18.56
2023-04-21T22:21:16.794Z,18.53
2023-04-21T22:24:04.032Z,18.50
2023-04-21T22:26:51.060Z,18.48
2023-04-21T22:29:38.198Z,18.45
2023-04-21T22:32:25.615Z,18.42
2023-04-21T22:35:12.675Z,18.39
2023-04-21T22:37:59.526Z,18.36
2023-04-21T22:40:46.889Z,18.33
2023-04-21T22:43:34.171Z,18.30
2023-04-21T22:46:21.218Z,18.24
2023-04-21T22:49:09.228Z,18.21
2023-04-21T22:51:56.107Z,18.19
2023-04-21T22:54:42.994Z,18.16
2023-04-21T22:57:30.000Z,18.13
2023-04-21T23:00:17.037Z,18.10
2023-04-21T23:03:04.112Z,18.07
2023-04-21T23:05:51.140Z,18.04
2023-04-21T23:08:38.502Z,18.02
2023-04-21T23:11:25.436Z,17.98
2023-04-21T23:14:12.499Z,17.95
2023-04-21T23:16:59.533Z,17.91
2023-04-21T23:19:46.662Z,17.89
2023-04-21T23:22:33.506Z,17.85
2023-04-21T23:25:20.800Z,17.84
2023-04-21T23:28:07.657Z,17.81
2023-04-21T23:30:54.561Z,17.78
2023-04-21T23:33:41.418Z,17.74
2023-04-21T23:36:28.275Z,17.70
2023-04-21T23:39:15.173Z,17.67
2023-04-21T23:42:04.705Z,17.65
2023-04-21T23:44:51.642Z,17.60
2023-04-21T23:47:38.669Z,17.58
2023-04-21T23:50:25.614Z,17.54
2023-04-21T23:53:12.583Z,17.50
2023-04-21T23:55:59.396Z,17.48
2023-04-21T23:58:47.056Z,17.45
